createdAt,value
2018-07-14T00:01:17.687Z,6.77
2018-07-14T00:03:45.900Z,7.13
2018-07-14T00:06:14.142Z,6.43
2018-07-14T00:08:42.464Z,6.80
2018-07-14T00:11:10.756Z,6.80
2018-07-14T00:13:39.008Z,6.97
2018-07-14T00:16:07.360Z,7.20
2018-07-14T00:18:35.584Z,6.37
2018-07-14T00:21:03.852Z,7.20
2018-07-14T00:23:32.201Z,6.83
2018-07-14T00:26:00.508Z,6.87
2018-07-14T00:28:29.536Z,6.87
2018-07-14T00:30:58.029Z,6.70
2018-07-14T00:33:26.299Z,6.57
2018-07-14T00:35:54.600Z,7.00
2018-07-14T00:38:22.868Z,7.17
2018-07-14T00:40:51.115Z,6.77
2018-07-14T00:43:19.335Z,6.97
2018-07-14T00:45:47.555Z,6.90
2018-07-14T00:48:15.844Z,6.93
2018-07-14T00:50:44.080Z,7.77
2018-07-14T00:53:12.409Z,6.80
2018-07-14T00:55:40.726Z,8.03
2018-07-14T00:58:08.979Z,7.43
2018-07-14T01:00:37.213Z,7.03
2018-07-14T01:03:05.477Z,7.53
2018-07-14T01:05:33.744Z,7.70
2018-07-14T01:08:02.035Z,8.00
2018-07-14T01:10:30.261Z,7.77
2018-07-14T01:12:58.789Z,8.20
2018-07-14T01:15:27.087Z,8.33
2018-07-14T01:17:55.367Z,8.03
2018-07-14T01:20:23.702Z,8.40
2018-07-14T01:22:52.099Z,8.03
2018-07-14T01:25:20.324Z,7.83
2018-07-14T01:27:48.561Z,7.80
2018-07-14T01:30:16.825Z,7.73
2018-07-14T01:32:45.063Z,7.10
2018-07-14T01:35:13.331Z,7.23
2018-07-14T01:37:41.593Z,6.60
2018-07-14T01:40:09.850Z,7.67
2018-07-14T01:42:38.232Z,7.30
2018-07-14T01:45:06.538Z,7.57
2018-07-14T01:47:34.855Z,7.80
2018-07-14T01:50:03.248Z,7.60
2018-07-14T01:52:31.533Z,7.73
2018-07-14T01:54:59.814Z,8.50
2018-07-14T01:57:28.068Z,7.70
2018-07-14T01:59:56.363Z,6.87
2018-07-14T02:02:24.700Z,6.87
2018-07-14T02:04:52.968Z,7.47
2018-07-14T02:07:21.236Z,7.20
2018-07-14T02:09:49.517Z,7.43
2018-07-14T02:12:17.750Z,8.00
2018-07-14T02:14:45.951Z,7.77
2018-07-14T02:17:14.192Z,7.70
2018-07-14T02:19:42.455Z,7.90
2018-07-14T02:22:10.755Z,8.33
2018-07-14T02:24:39.115Z,7.80
2018-07-14T02:27:07.412Z,7.90
2018-07-14T02:29:35.807Z,8.20
2018-07-14T02:32:04.388Z,7.67
2018-07-14T02:34:32.735Z,8.47
2018-07-14T02:37:00.979Z,7.27
2018-07-14T02:39:29.261Z,7.87
2018-07-14T02:41:57.488Z,8.13
2018-07-14T02:44:25.789Z,7.70
2018-07-14T02:46:54.034Z,7.97
2018-07-14T02:49:22.276Z,8.20
2018-07-14T02:51:50.523Z,7.97
2018-07-14T02:54:18.987Z,7.70
2018-07-14T02:56:47.613Z,8.07
2018-07-14T02:59:15.991Z,7.77
2018-07-14T03:01:44.212Z,8.57
2018-07-14T03:04:12.499Z,9.87
2018-07-14T03:06:40.848Z,8.53
2018-07-14T03:09:09.203Z,8.47
2018-07-14T03:11:37.556Z,8.87
2018-07-14T03:14:06.001Z,9.17
2018-07-14T03:16:34.258Z,8.93
2018-07-14T03:19:02.492Z,9.13
2018-07-14T03:21:30.819Z,8.37
2018-07-14T03:23:59.137Z,8.63
2018-07-14T03:26:27.421Z,7.90
2018-07-14T03:28:55.708Z,8.50
2018-07-14T03:31:24.202Z,7.97
2018-07-14T03:33:52.701Z,8.70
2018-07-14T03:36:20.953Z,8.67
2018-07-14T03:38:49.522Z,8.47
2018-07-14T03:41:17.837Z,9.00
2018-07-14T03:43:46.124Z,8.57
2018-07-14T03:46:14.448Z,8.17
2018-07-14T03:48:43.423Z,8.63
2018-07-14T03:51:11.932Z,9.00
2018-07-14T03:53:40.257Z,8.90
2018-07-14T03:56:08.435Z,9.70
2018-07-14T03:58:37.348Z,8.83
2018-07-14T04:01:05.705Z,9.00
2018-07-14T04:03:34.198Z,8.90
2018-07-14T04:06:02.667Z,9.60
2018-07-14T04:08:30.939Z,9.67
2018-07-14T04:10:59.291Z,9.10
2018-07-14T04:13:27.636Z,8.70
2018-07-14T04:15:56.005Z,9.37
2018-07-14T04:18:24.259Z,10.03
2018-07-14T04:20:52.596Z,9.67
2018-07-14T04:23:20.899Z,9.53
2018-07-14T04:25:49.841Z,8.73
2018-07-14T04:28:18.099Z,9.07
2018-07-14T04:30:46.324Z,9.53
2018-07-14T04:33:14.720Z,9.73
2018-07-14T04:35:43.063Z,9.63
2018-07-14T04:38:12.051Z,9.33
2018-07-14T04:40:40.279Z,9.03
2018-07-14T04:43:09.195Z,9.03
2018-07-14T04:45:37.484Z,8.77
2018-07-14T04:48:05.919Z,9.17
2018-07-14T04:50:34.160Z,9.17
2018-07-14T04:53:02.469Z,9.10
2018-07-14T04:55:30.776Z,8.50
2018-07-14T04:57:59.027Z,9.00
2018-07-14T05:00:27.352Z,9.80
2018-07-14T05:02:55.615Z,8.67
2018-07-14T05:05:23.875Z,9.37
2018-07-14T05:07:52.212Z,9.37
2018-07-14T05:10:20.556Z,9.60
2018-07-14T05:12:48.912Z,8.80
2018-07-14T05:15:17.208Z,8.70
2018-07-14T05:17:45.438Z,9.67
2018-07-14T05:20:13.696Z,9.40
2018-07-14T05:22:42.047Z,9.80
2018-07-14T05:25:10.423Z,9.87
2018-07-14T05:27:38.680Z,9.70
2018-07-14T05:30:06.950Z,10.90
2018-07-14T05:32:35.266Z,10.00
2018-07-14T05:35:03.753Z,10.63
2018-07-14T05:37:32.131Z,11.27
2018-07-14T05:40:00.395Z,9.87
2018-07-14T05:42:29.427Z,10.10
2018-07-14T05:44:57.825Z,10.30
2018-07-14T05:47:26.093Z,9.77
2018-07-14T05:49:54.284Z,10.20
2018-07-14T05:52:22.767Z,9.90
2018-07-14T05:54:51.953Z,10.47
2018-07-14T05:57:20.172Z,10.27
2018-07-14T05:59:48.948Z,10.00
2018-07-14T06:02:17.211Z,10.43
2018-07-14T06:04:45.456Z,10.20
2018-07-14T06:07:13.744Z,10.70
2018-07-14T06:09:42.124Z,10.40
2018-07-14T06:12:10.475Z,10.53
2018-07-14T06:14:38.844Z,9.23
2018-07-14T06:17:07.147Z,8.97
2018-07-14T06:19:35.523Z,8.80
2018-07-14T06:22:04.384Z,9.27
2018-07-14T06:24:33.075Z,9.93
2018-07-14T06:27:03.486Z,9.27
2018-07-14T06:29:35.066Z,9.97
2018-07-14T06:32:06.358Z,9.83
2018-07-14T06:34:34.571Z,8.80
2018-07-14T06:37:02.857Z,8.67
2018-07-14T06:39:31.187Z,9.27
2018-07-14T06:41:59.456Z,8.10
2018-07-14T06:44:27.679Z,9.03
2018-07-14T06:46:56.005Z,9.33
2018-07-14T06:49:24.382Z,8.53
2018-07-14T06:51:53.076Z,8.57
2018-07-14T06:54:21.662Z,9.17
2018-07-14T06:56:50.082Z,8.40
2018-07-14T06:59:18.403Z,9.43
2018-07-14T07:01:46.728Z,9.57
2018-07-14T07:04:15.135Z,9.50
2018-07-14T07:06:43.335Z,8.63
2018-07-14T07:09:11.584Z,9.40
2018-07-14T07:11:40.395Z,8.93
2018-07-14T07:14:08.879Z,8.27
2018-07-14T07:16:37.289Z,8.57
2018-07-14T07:19:05.632Z,8.37
2018-07-14T07:21:33.982Z,8.10
2018-07-14T07:24:02.367Z,8.33
2018-07-14T07:26:31.045Z,8.27
2018-07-14T07:28:59.333Z,7.83
2018-07-14T07:31:27.685Z,7.87
2018-07-14T07:33:56.031Z,7.83
2018-07-14T07:36:24.289Z,8.53
2018-07-14T07:38:52.525Z,8.57
2018-07-14T07:41:20.909Z,7.50
2018-07-14T07:43:49.625Z,7.97
2018-07-14T07:46:17.954Z,7.20
2018-07-14T07:48:46.195Z,8.23
2018-07-14T07:51:14.436Z,6.90
2018-07-14T07:53:42.744Z,7.63
2018-07-14T07:56:11.132Z,7.27
2018-07-14T07:58:39.417Z,7.37
2018-07-14T08:01:07.843Z,7.40
2018-07-14T08:03:36.131Z,6.93
2018-07-14T08:06:04.580Z,7.07
2018-07-14T08:08:32.899Z,7.10
2018-07-14T08:11:01.356Z,6.97
2018-07-14T08:13:29.776Z,7.13
2018-07-14T08:15:58.109Z,6.53
2018-07-14T08:18:26.369Z,6.97
2018-07-14T08:20:54.842Z,7.93
2018-07-14T08:23:23.088Z,7.93
2018-07-14T08:25:51.364Z,7.77
2018-07-14T08:28:19.695Z,7.97
2018-07-14T08:30:47.991Z,8.10
2018-07-14T08:33:16.244Z,7.37
2018-07-14T08:35:44.753Z,8.17
2018-07-14T08:38:13.032Z,8.63
2018-07-14T08:40:41.340Z,8.27
2018-07-14T08:43:09.556Z,8.53
2018-07-14T08:45:37.868Z,9.63
2018-07-14T08:48:06.289Z,8.80
2018-07-14T08:50:34.641Z,8.07
2018-07-14T08:53:02.834Z,6.57
2018-07-14T08:55:31.179Z,7.10
2018-07-14T08:57:59.460Z,7.70
2018-07-14T09:00:27.936Z,7.70
2018-07-14T09:02:56.219Z,6.30
2018-07-14T09:05:24.647Z,5.57
2018-07-14T09:07:53.187Z,5.60
2018-07-14T09:10:21.616Z,4.83
2018-07-14T09:12:49.910Z,5.97
2018-07-14T09:15:18.271Z,5.70
2018-07-14T09:17:46.640Z,4.97
2018-07-14T09:20:15.129Z,6.23
2018-07-14T09:22:49.816Z,5.47
2018-07-14T09:25:18.143Z,5.80
2018-07-14T09:27:46.421Z,4.83
2018-07-14T09:30:15.071Z,5.23
2018-07-14T09:32:43.789Z,4.73
2018-07-14T09:35:12.101Z,4.47
2018-07-14T09:37:40.420Z,4.70
2018-07-14T09:40:08.839Z,4.30
2018-07-14T09:42:37.113Z,4.13
2018-07-14T09:45:05.496Z,4.30
2018-07-14T09:47:33.825Z,4.17
2018-07-14T09:50:02.074Z,4.43
2018-07-14T09:52:30.155Z,3.73
2018-07-14T09:54:58.348Z,3.80
2018-07-14T09:57:26.775Z,4.60
2018-07-14T09:59:55.074Z,4.03
2018-07-14T10:02:23.319Z,3.97
2018-07-14T10:04:51.592Z,3.60
2018-07-14T10:07:19.812Z,3.60
2018-07-14T10:09:47.903Z,3.83
2018-07-14T10:12:16.156Z,3.80
2018-07-14T10:14:44.473Z,3.30
2018-07-14T10:17:12.753Z,3.73
2018-07-14T10:19:41.176Z,3.90
2018-07-14T10:22:09.653Z,3.37
2018-07-14T10:24:38.282Z,4.10
2018-07-14T10:27:06.532Z,3.67
2018-07-14T10:29:34.786Z,3.90
2018-07-14T10:32:03.060Z,4.17
2018-07-14T10:34:31.387Z,3.97
2018-07-14T10:36:59.673Z,3.57
2018-07-14T10:39:27.967Z,3.57
2018-07-14T10:41:56.338Z,3.10
2018-07-14T10:44:24.654Z,3.60
2018-07-14T10:46:53.032Z,3.87
2018-07-14T10:49:21.305Z,3.13
2018-07-14T10:51:49.512Z,3.63
2018-07-14T10:54:17.780Z,3.67
2018-07-14T10:56:45.995Z,3.23
2018-07-14T10:59:14.228Z,3.30
2018-07-14T11:01:42.446Z,3.67
2018-07-14T11:04:10.657Z,3.77
2018-07-14T11:06:38.951Z,2.90
2018-07-14T11:09:07.818Z,3.13
2018-07-14T11:11:36.116Z,3.10
2018-07-14T11:14:04.399Z,3.67
2018-07-14T11:16:32.804Z,3.47
2018-07-14T11:19:01.115Z,3.37
2018-07-14T11:21:29.382Z,3.40
2018-07-14T11:23:57.620Z,3.13
2018-07-14T11:26:25.914Z,3.00
2018-07-14T11:28:54.201Z,3.40
2018-07-14T11:31:22.387Z,3.53
2018-07-14T11:33:50.616Z,3.13
2018-07-14T11:36:19.011Z,3.33
2018-07-14T11:38:47.349Z,3.20
2018-07-14T11:41:15.552Z,3.20
2018-07-14T11:43:43.875Z,3.77
2018-07-14T11:46:12.107Z,3.67
2018-07-14T11:48:40.323Z,3.47
2018-07-14T11:51:08.609Z,3.67
2018-07-14T11:53:36.875Z,3.40
2018-07-14T11:56:05.508Z,3.43
2018-07-14T11:58:33.706Z,3.37
2018-07-14T12:01:01.960Z,3.13
2018-07-14T12:03:30.289Z,3.40
2018-07-14T12:05:58.504Z,3.47
2018-07-14T12:08:26.713Z,3.13
2018-07-14T12:10:54.952Z,3.50
2018-07-14T12:13:23.207Z,3.23
2018-07-14T12:15:51.507Z,3.60
2018-07-14T12:18:19.763Z,3.30
2018-07-14T12:20:48.032Z,3.23
2018-07-14T12:23:16.331Z,3.30
2018-07-14T12:25:44.520Z,3.80
2018-07-14T12:28:12.905Z,3.00
2018-07-14T12:30:41.144Z,2.70
2018-07-14T12:33:09.515Z,3.10
2018-07-14T12:35:37.767Z,3.13
2018-07-14T12:38:06.048Z,2.70
2018-07-14T12:40:34.311Z,3.20
2018-07-14T12:43:02.552Z,2.73
2018-07-14T12:45:30.823Z,2.70
2018-07-14T12:47:59.057Z,2.63
2018-07-14T12:50:27.372Z,2.57
2018-07-14T12:52:55.600Z,2.50
2018-07-14T12:55:23.827Z,2.70
2018-07-14T12:57:52.225Z,2.60
2018-07-14T13:00:20.467Z,3.17
2018-07-14T13:02:49.405Z,2.67
2018-07-14T13:05:17.651Z,2.50
2018-07-14T13:07:45.936Z,2.30
2018-07-14T13:10:14.175Z,2.62
2018-07-14T13:12:42.396Z,2.52
2018-07-14T13:15:10.623Z,2.60
2018-07-14T13:17:38.965Z,2.40
2018-07-14T13:20:07.189Z,2.30
2018-07-14T13:22:35.483Z,3.22
2018-07-14T13:25:03.733Z,2.90
2018-07-14T13:27:31.975Z,2.67
2018-07-14T13:30:00.301Z,2.98
2018-07-14T13:32:28.543Z,3.10
2018-07-14T13:34:56.834Z,3.05
2018-07-14T13:37:25.102Z,2.52
2018-07-14T13:39:53.315Z,3.00
2018-07-14T13:42:21.616Z,2.52
2018-07-14T13:44:49.867Z,2.72
2018-07-14T13:47:18.065Z,2.90
2018-07-14T13:49:46.997Z,2.75
2018-07-14T13:52:15.228Z,2.95
2018-07-14T13:54:43.452Z,3.08
2018-07-14T13:57:12.164Z,2.55
2018-07-14T13:59:41.009Z,2.62
2018-07-14T14:02:09.251Z,2.70
2018-07-14T14:04:37.551Z,2.60
2018-07-14T14:07:05.830Z,2.58
2018-07-14T14:09:34.055Z,2.90
2018-07-14T14:12:02.283Z,2.60
2018-07-14T14:14:30.492Z,2.40
2018-07-14T14:16:58.745Z,2.58
2018-07-14T14:19:26.948Z,2.80
2018-07-14T14:21:55.185Z,2.85
2018-07-14T14:24:23.422Z,2.77
2018-07-14T14:26:51.651Z,2.65
2018-07-14T14:29:19.881Z,2.65
2018-07-14T14:31:48.173Z,3.08
2018-07-14T14:34:16.379Z,2.60
2018-07-14T14:36:44.600Z,2.52
2018-07-14T14:39:12.824Z,2.60
2018-07-14T14:41:42.384Z,2.55
2018-07-14T14:44:10.596Z,2.87
2018-07-14T14:46:38.877Z,3.00
2018-07-14T14:49:07.104Z,2.98
2018-07-14T14:51:35.330Z,2.83
2018-07-14T14:54:03.550Z,3.02
2018-07-14T14:56:31.912Z,3.10
2018-07-14T14:59:00.200Z,2.90
2018-07-14T15:01:28.393Z,3.08
2018-07-14T15:03:56.621Z,3.33
2018-07-14T15:06:24.967Z,2.72
2018-07-14T15:08:53.169Z,3.10
2018-07-14T15:11:21.391Z,2.60
2018-07-14T15:13:49.639Z,2.62
2018-07-14T15:16:17.840Z,2.67
2018-07-14T15:18:46.156Z,3.10
2018-07-14T15:21:14.369Z,3.37
2018-07-14T15:23:42.585Z,2.95
2018-07-14T15:26:10.878Z,2.98
2018-07-14T15:28:39.107Z,2.95
2018-07-14T15:31:07.318Z,2.75
2018-07-14T15:33:35.580Z,2.70
2018-07-14T15:36:03.941Z,3.30
2018-07-14T15:38:32.315Z,3.85
2018-07-14T15:41:00.504Z,3.10
2018-07-14T15:43:28.762Z,2.83
2018-07-14T15:45:56.986Z,2.85
2018-07-14T15:48:25.187Z,2.83
2018-07-14T15:50:53.508Z,3.00
2018-07-14T15:53:21.748Z,2.80
2018-07-14T15:55:49.962Z,3.42
2018-07-14T15:58:18.225Z,3.35
2018-07-14T16:00:46.543Z,3.00
2018-07-14T16:03:14.738Z,3.22
2018-07-14T16:05:42.959Z,3.20
2018-07-14T16:08:11.430Z,3.22
2018-07-14T16:10:39.801Z,3.30
2018-07-14T16:13:08.476Z,3.35
2018-07-14T16:15:36.695Z,2.95
2018-07-14T16:18:05.017Z,3.33
2018-07-14T16:20:33.280Z,3.00
2018-07-14T16:23:01.479Z,3.52
2018-07-14T16:25:29.939Z,3.27
2018-07-14T16:27:58.643Z,3.67
2018-07-14T16:30:26.860Z,3.95
2018-07-14T16:32:55.149Z,3.25
2018-07-14T16:35:23.360Z,3.60
2018-07-14T16:37:51.827Z,3.12
2018-07-14T16:40:20.056Z,3.27
2018-07-14T16:42:48.296Z,3.33
2018-07-14T16:45:16.525Z,3.20
2018-07-14T16:47:44.796Z,2.95
2018-07-14T16:50:13.131Z,3.17
2018-07-14T16:52:41.380Z,3.77
2018-07-14T16:55:09.609Z,2.85
2018-07-14T16:57:37.928Z,2.90
2018-07-14T17:00:06.195Z,3.60
2018-07-14T17:02:34.795Z,3.95
2018-07-14T17:05:03.171Z,3.25
2018-07-14T17:07:31.399Z,3.70
2018-07-14T17:09:59.653Z,3.37
2018-07-14T17:12:28.465Z,3.17
2018-07-14T17:14:56.772Z,3.62
2018-07-14T17:17:24.961Z,3.05
2018-07-14T17:19:53.193Z,3.50
2018-07-14T17:22:21.568Z,3.55
2018-07-14T17:24:49.848Z,3.15
2018-07-14T17:27:18.048Z,3.08
2018-07-14T17:29:46.281Z,2.75
2018-07-14T17:32:14.539Z,3.25
2018-07-14T17:34:42.825Z,3.22
2018-07-14T17:37:11.081Z,3.00
2018-07-14T17:39:39.493Z,3.50
2018-07-14T17:42:07.736Z,3.30
2018-07-14T17:44:36.061Z,3.37
2018-07-14T17:47:04.253Z,3.25
2018-07-14T17:49:32.680Z,3.50
2018-07-14T17:52:01.144Z,3.35
2018-07-14T17:54:29.224Z,3.37
2018-07-14T17:56:57.481Z,3.02
2018-07-14T17:59:25.736Z,3.45
2018-07-14T18:01:53.983Z,2.77
2018-07-14T18:04:22.216Z,3.62
2018-07-14T18:06:51.009Z,3.10
2018-07-14T18:09:19.253Z,3.05
2018-07-14T18:11:49.145Z,2.98
2018-07-14T18:14:17.668Z,3.42
2018-07-14T18:16:45.863Z,3.40
2018-07-14T18:19:14.392Z,3.17
2018-07-14T18:21:42.586Z,3.90
2018-07-14T18:24:10.888Z,3.10
2018-07-14T18:26:39.279Z,3.20
2018-07-14T18:29:07.496Z,3.20
2018-07-14T18:31:35.711Z,3.50
2018-07-14T18:34:03.953Z,2.95
2018-07-14T18:36:32.161Z,3.60
2018-07-14T18:39:00.361Z,3.50
2018-07-14T18:41:28.593Z,4.97
2018-07-14T18:43:56.827Z,6.92
2018-07-14T18:46:25.010Z,5.97
2018-07-14T18:48:53.259Z,5.92
2018-07-14T18:51:21.568Z,5.70
2018-07-14T18:53:49.783Z,5.47
2018-07-14T18:56:18.014Z,5.10
2018-07-14T18:58:46.230Z,3.93
2018-07-14T19:01:14.508Z,4.17
2018-07-14T19:03:42.749Z,4.47
2018-07-14T19:06:11.179Z,4.90
2018-07-14T19:08:39.649Z,4.67
2018-07-14T19:11:07.823Z,4.17
2018-07-14T19:13:36.011Z,4.20
2018-07-14T19:16:04.288Z,4.17
2018-07-14T19:18:33.347Z,4.63
2018-07-14T19:21:01.776Z,4.60
2018-07-14T19:23:29.931Z,3.90
2018-07-14T19:25:58.212Z,3.63
2018-07-14T19:28:26.436Z,3.97
2018-07-14T19:30:54.799Z,4.53
2018-07-14T19:33:22.993Z,4.20
2018-07-14T19:35:51.252Z,4.27
2018-07-14T19:38:19.430Z,4.50
2018-07-14T19:40:47.669Z,4.23
2018-07-14T19:43:15.920Z,4.17
2018-07-14T19:45:44.784Z,4.80
2018-07-14T19:48:13.044Z,4.50
2018-07-14T19:50:41.356Z,5.37
2018-07-14T19:53:10.154Z,4.87
2018-07-14T19:55:38.348Z,4.97
2018-07-14T19:58:06.570Z,4.57
2018-07-14T20:00:34.832Z,4.60
2018-07-14T20:03:03.067Z,5.03
2018-07-14T20:05:31.284Z,5.07
2018-07-14T20:07:59.503Z,5.00
2018-07-14T20:10:27.766Z,5.57
2018-07-14T20:12:56.028Z,5.60
2018-07-14T20:15:24.228Z,5.23
2018-07-14T20:17:52.957Z,10.23
2018-07-14T20:20:21.396Z,8.43
2018-07-14T20:22:49.645Z,8.30
2018-07-14T20:25:17.929Z,7.20
2018-07-14T20:27:46.244Z,6.53
2018-07-14T20:30:14.484Z,6.80
2018-07-14T20:32:42.786Z,7.90
2018-07-14T20:35:11.056Z,7.97
2018-07-14T20:37:39.406Z,9.97
2018-07-14T20:40:07.768Z,11.33
2018-07-14T20:42:35.959Z,8.57
2018-07-14T20:45:04.259Z,8.03
2018-07-14T20:47:32.451Z,7.93
2018-07-14T20:50:00.720Z,6.57
2018-07-14T20:52:29.004Z,6.57
2018-07-14T20:54:57.423Z,8.07
2018-07-14T20:57:25.618Z,7.23
2018-07-14T20:59:53.828Z,6.30
2018-07-14T21:02:22.069Z,6.53
2018-07-14T21:04:50.279Z,7.67
2018-07-14T21:07:18.607Z,7.33
2018-07-14T21:09:46.985Z,7.03
2018-07-14T21:12:15.875Z,7.10
2018-07-14T21:14:44.099Z,7.83
2018-07-14T21:17:12.311Z,8.87
2018-07-14T21:19:40.523Z,7.67
2018-07-14T21:22:08.781Z,7.37
2018-07-14T21:24:36.997Z,7.60
2018-07-14T21:27:05.326Z,7.50
2018-07-14T21:29:33.601Z,7.47
2018-07-14T21:32:02.207Z,7.50
2018-07-14T21:34:30.453Z,6.57
2018-07-14T21:36:58.886Z,8.00
2018-07-14T21:39:28.092Z,7.57
2018-07-14T21:41:56.335Z,7.80
2018-07-14T21:44:24.613Z,8.23
2018-07-14T21:46:52.824Z,8.00
2018-07-14T21:49:21.067Z,8.60
2018-07-14T21:51:49.282Z,8.00
2018-07-14T21:54:17.564Z,8.63
2018-07-14T21:56:45.796Z,8.73
2018-07-14T21:59:14.028Z,8.50
2018-07-14T22:01:47.591Z,8.97
2018-07-14T22:04:15.796Z,8.67
2018-07-14T22:06:44.018Z,8.30
2018-07-14T22:09:12.611Z,8.97
2018-07-14T22:11:40.876Z,8.17
2018-07-14T22:14:10.064Z,9.80
2018-07-14T22:16:38.247Z,9.17
2018-07-14T22:19:06.814Z,8.43
2018-07-14T22:21:35.069Z,8.50
2018-07-14T22:24:03.371Z,8.77
2018-07-14T22:26:31.576Z,9.30
2018-07-14T22:28:59.856Z,10.07
2018-07-14T22:31:28.620Z,10.20
2018-07-14T22:33:57.081Z,8.93
2018-07-14T22:36:25.890Z,9.67
2018-07-14T22:38:54.135Z,9.20
2018-07-14T22:41:22.678Z,8.80
2018-07-14T22:43:51.623Z,9.07
2018-07-14T22:46:19.863Z,9.10
2018-07-14T22:48:48.083Z,9.13
2018-07-14T22:51:16.305Z,8.53
2018-07-14T22:53:44.565Z,9.53
2018-07-14T22:56:12.800Z,9.23
2018-07-14T22:58:41.107Z,9.33
2018-07-14T23:01:09.320Z,8.77
2018-07-14T23:03:37.556Z,9.00
2018-07-14T23:06:05.896Z,9.73
2018-07-14T23:08:34.179Z,9.73
2018-07-14T23:11:02.430Z,9.37
2018-07-14T23:13:30.716Z,10.00
2018-07-14T23:15:59.008Z,9.53
2018-07-14T23:18:27.280Z,9.20
2018-07-14T23:20:56.356Z,9.53
2018-07-14T23:23:24.581Z,9.50
2018-07-14T23:25:52.871Z,9.20
2018-07-14T23:28:21.107Z,10.17
2018-07-14T23:30:55.701Z,9.07
2018-07-14T23:33:23.933Z,9.30
2018-07-14T23:35:52.211Z,10.17
2018-07-14T23:38:20.517Z,10.33
2018-07-14T23:40:48.772Z,10.07
2018-07-14T23:43:16.999Z,9.90
2018-07-14T23:45:45.244Z,10.07
2018-07-14T23:48:13.484Z,9.47
2018-07-14T23:50:42.779Z,10.23
2018-07-14T23:53:11.023Z,8.77
2018-07-14T23:55:39.270Z,9.73
2018-07-14T23:58:07.469Z,9.70
